createdAt,value
2023-01-21T00:00:57.379Z,102360.44
2023-01-21T00:03:24.480Z,102359.00
2023-01-21T00:05:51.652Z,102353.44
2023-01-21T00:08:18.213Z,102356.31
2023-01-21T00:10:44.788Z,102365.69
2023-01-21T00:13:11.732Z,102361.38
2023-01-21T00:15:39.769Z,102371.81
2023-01-21T00:18:06.631Z,102362.13
2023-01-21T00:20:33.182Z,102366.34
2023-01-21T00:22:59.785Z,102368.44
2023-01-21T00:25:26.906Z,102378.03
2023-01-21T00:27:53.440Z,102379.09
2023-01-21T00:30:21.392Z,102374.38
2023-01-21T00:32:48.512Z,102374.72
2023-01-21T00:35:15.742Z,102379.25
2023-01-21T00:37:42.785Z,102387.41
2023-01-21T00:40:09.944Z,102394.59
2023-01-21T00:42:36.421Z,102405.31
2023-01-21T00:45:03.134Z,102413.06
2023-01-21T00:47:29.634Z,102412.56
2023-01-21T00:49:56.148Z,102427.03
2023-01-21T00:52:22.669Z,102427.41
2023-01-21T00:54:49.230Z,102432.41
2023-01-21T00:57:16.256Z,102433.41
2023-01-21T00:59:43.007Z,102433.59
2023-01-21T01:02:10.009Z,102430.94
2023-01-21T01:04:36.487Z,102439.75
2023-01-21T01:07:03.505Z,102445.19
2023-01-21T01:09:30.066Z,102445.59
2023-01-21T01:11:56.544Z,102457.59
2023-01-21T01:14:23.270Z,102464.19
2023-01-21T01:16:50.228Z,102452.75
2023-01-21T01:19:17.162Z,102467.41
2023-01-21T01:21:43.741Z,102466.84
2023-01-21T01:24:10.278Z,102470.16
2023-01-21T01:26:36.926Z,102465.09
2023-01-21T01:29:04.614Z,102470.41
2023-01-21T01:31:31.456Z,102478.78
2023-01-21T01:33:58.483Z,102472.03
2023-01-21T01:36:25.138Z,102473.94
2023-01-21T01:38:53.010Z,102470.56
2023-01-21T01:41:24.979Z,102482.75
2023-01-21T01:44:33.617Z,102476.84
2023-01-21T01:47:01.154Z,102491.56
2023-01-21T01:49:27.592Z,102487.34
2023-01-21T01:51:57.840Z,102486.72
2023-01-21T01:54:39.310Z,102495.66
2023-01-21T01:57:07.816Z,102506.69
2023-01-21T01:59:34.838Z,102501.56
2023-01-21T02:02:08.397Z,102508.66
2023-01-21T02:04:52.379Z,102517.56
2023-01-21T02:07:21.236Z,102515.34
2023-01-21T02:09:48.049Z,102524.13
2023-01-21T02:12:15.352Z,102528.34
2023-01-21T02:14:44.739Z,102514.25
2023-01-21T02:17:17.458Z,102512.97
2023-01-21T02:20:09.815Z,102526.50
2023-01-21T02:22:59.554Z,102521.44
2023-01-21T02:25:40.934Z,102526.53
2023-01-21T02:28:29.119Z,102531.03
2023-01-21T02:31:05.011Z,102538.28
2023-01-21T02:33:57.879Z,102543.75
2023-01-21T02:36:43.947Z,102547.47
2023-01-21T02:39:18.616Z,102556.72
2023-01-21T02:42:00.228Z,102553.22
2023-01-21T02:44:43.347Z,102555.06
2023-01-21T02:47:31.189Z,102561.72
2023-01-21T02:50:05.339Z,102560.09
2023-01-21T02:52:31.839Z,102568.06
2023-01-21T02:55:00.209Z,102565.63
2023-01-21T02:57:36.796Z,102560.66
2023-01-21T03:00:09.247Z,102563.66
2023-01-21T03:02:48.008Z,102575.78
2023-01-21T03:05:24.578Z,102562.22
2023-01-21T03:07:59.475Z,102569.22
2023-01-21T03:10:32.612Z,102570.75
2023-01-21T03:13:02.980Z,102568.13
2023-01-21T03:15:55.131Z,102587.28
2023-01-21T03:18:45.846Z,102583.72
2023-01-21T03:21:17.088Z,102581.50
2023-01-21T03:23:45.418Z,102588.28
2023-01-21T03:26:14.899Z,102593.75
2023-01-21T03:28:45.046Z,102584.94
2023-01-21T03:31:27.053Z,102588.66
2023-01-21T03:33:56.371Z,102593.97
2023-01-21T03:36:37.746Z,102596.56
2023-01-21T03:39:10.270Z,102604.50
2023-01-21T03:41:38.105Z,102596.56
2023-01-21T03:44:04.576Z,102603.78
2023-01-21T03:46:41.681Z,102600.78
2023-01-21T03:49:20.876Z,102613.44
2023-01-21T03:51:50.830Z,102608.53
2023-01-21T03:54:17.488Z,102609.72
2023-01-21T03:56:43.925Z,102612.88
2023-01-21T03:59:10.937Z,102611.72
2023-01-21T04:01:37.464Z,102618.47
2023-01-21T04:04:04.126Z,102622.81
2023-01-21T04:06:30.730Z,102613.66
2023-01-21T04:08:57.207Z,102629.06
2023-01-21T04:11:24.016Z,102631.03
2023-01-21T04:13:50.533Z,102622.91
2023-01-21T04:16:17.022Z,102639.44
2023-01-21T04:18:43.552Z,102641.63
2023-01-21T04:21:10.085Z,102630.47
2023-01-21T04:23:36.591Z,102641.09
2023-01-21T04:26:03.123Z,102642.19
2023-01-21T04:28:29.573Z,102646.03
2023-01-21T04:30:56.087Z,102653.41
2023-01-21T04:33:22.696Z,102647.28
2023-01-21T04:35:49.188Z,102647.66
2023-01-21T04:38:15.916Z,102643.44
2023-01-21T04:40:42.615Z,102655.31
2023-01-21T04:43:09.185Z,102657.78
2023-01-21T04:45:35.882Z,102660.06
2023-01-21T04:48:02.432Z,102662.19
2023-01-21T04:50:28.931Z,102662.81
2023-01-21T04:52:55.409Z,102656.56
2023-01-21T04:55:22.749Z,102662.13
2023-01-21T04:57:50.175Z,102660.84
2023-01-21T05:00:17.365Z,102672.22
2023-01-21T05:02:43.937Z,102670.88
2023-01-21T05:05:10.457Z,102670.69
2023-01-21T05:07:37.046Z,102673.50
2023-01-21T05:10:04.292Z,102684.72
2023-01-21T05:12:30.752Z,102687.28
2023-01-21T05:15:00.175Z,102686.38
2023-01-21T05:17:26.680Z,102697.09
2023-01-21T05:19:53.198Z,102698.91
2023-01-21T05:22:19.656Z,102693.53
2023-01-21T05:24:46.149Z,102699.09
2023-01-21T05:27:12.598Z,102698.97
2023-01-21T05:29:40.076Z,102704.09
2023-01-21T05:32:06.550Z,102711.84
2023-01-21T05:34:33.051Z,102704.97
2023-01-21T05:36:59.561Z,102707.72
2023-01-21T05:39:26.040Z,102723.59
2023-01-21T05:41:52.590Z,102725.47
2023-01-21T05:44:19.035Z,102721.25
2023-01-21T05:46:45.514Z,102732.59
2023-01-21T05:49:11.993Z,102737.00
2023-01-21T05:51:38.475Z,102741.03
2023-01-21T05:54:04.970Z,102739.69
2023-01-21T05:56:31.453Z,102751.28
2023-01-21T05:58:57.903Z,102754.34
2023-01-21T06:01:24.460Z,102758.91
2023-01-21T06:03:50.982Z,102759.50
2023-01-21T06:06:17.529Z,102753.06
2023-01-21T06:08:44.023Z,102757.91
2023-01-21T06:11:10.540Z,102761.91
2023-01-21T06:13:36.987Z,102750.69
2023-01-21T06:16:03.807Z,102758.63
2023-01-21T06:18:30.259Z,102759.88
2023-01-21T06:20:59.666Z,102768.84
2023-01-21T06:23:26.402Z,102773.69
2023-01-21T06:25:52.877Z,102781.31
2023-01-21T06:28:19.374Z,102784.13
2023-01-21T06:30:45.909Z,102779.72
2023-01-21T06:33:12.417Z,102784.69
2023-01-21T06:35:38.894Z,102792.81
2023-01-21T06:38:05.357Z,102799.88
2023-01-21T06:40:31.839Z,102796.53
2023-01-21T06:42:58.386Z,102806.00
2023-01-21T06:45:24.853Z,102814.22
2023-01-21T06:47:51.316Z,102811.66
2023-01-21T06:50:18.157Z,102816.16
2023-01-21T06:52:47.058Z,102813.34
2023-01-21T06:55:14.250Z,102811.16
2023-01-21T06:57:43.227Z,102813.16
2023-01-21T07:00:10.521Z,102811.59
2023-01-21T07:02:37.176Z,102825.28
2023-01-21T07:05:04.533Z,102830.66
2023-01-21T07:07:31.454Z,102832.31
2023-01-21T07:09:58.625Z,102836.72
2023-01-21T07:12:25.182Z,102840.44
2023-01-21T07:14:51.748Z,102838.47
2023-01-21T07:17:18.416Z,102847.06
2023-01-21T07:19:44.865Z,102854.94
2023-01-21T07:22:12.394Z,102850.59
2023-01-21T07:24:38.955Z,102855.38
2023-01-21T07:27:06.238Z,102863.75
2023-01-21T07:29:32.841Z,102864.78
2023-01-21T07:31:59.394Z,102863.16
2023-01-21T07:34:25.892Z,102866.13
2023-01-21T07:36:52.368Z,102871.13
2023-01-21T07:39:18.843Z,102874.91
2023-01-21T07:41:45.363Z,102875.88
2023-01-21T07:44:11.858Z,102879.28
2023-01-21T07:46:38.424Z,102883.34
2023-01-21T07:49:04.946Z,102892.47
2023-01-21T07:51:31.442Z,102890.75
2023-01-21T07:53:58.440Z,102900.41
2023-01-21T07:56:26.814Z,102893.78
2023-01-21T07:58:53.464Z,102895.94
2023-01-21T08:01:28.162Z,102893.47
2023-01-21T08:03:54.745Z,102890.13
2023-01-21T08:06:21.221Z,102890.09
2023-01-21T08:08:47.725Z,102890.63
2023-01-21T08:11:14.306Z,102897.16
2023-01-21T08:13:40.974Z,102903.72
2023-01-21T08:16:07.995Z,102910.19
2023-01-21T08:18:34.420Z,102910.00
2023-01-21T08:21:00.970Z,102908.28
2023-01-21T08:23:27.992Z,102915.22
2023-01-21T08:25:54.964Z,102920.13
2023-01-21T08:28:22.743Z,102928.28
2023-01-21T08:30:49.998Z,102924.00
2023-01-21T08:33:16.993Z,102930.16
2023-01-21T08:35:43.755Z,102930.94
2023-01-21T08:38:11.445Z,102928.22
2023-01-21T08:40:37.941Z,102937.44
2023-01-21T08:43:06.114Z,102952.03
2023-01-21T08:45:32.618Z,102949.28
2023-01-21T08:47:59.179Z,102953.19
2023-01-21T08:50:25.652Z,102954.56
2023-01-21T08:52:53.934Z,102966.50
2023-01-21T08:55:21.599Z,102962.38
2023-01-21T08:57:53.533Z,102970.94
2023-01-21T09:00:21.421Z,102963.25
2023-01-21T09:02:50.058Z,102958.94
2023-01-21T09:05:18.255Z,102972.81
2023-01-21T09:07:45.990Z,102973.91
2023-01-21T09:10:12.883Z,102976.59
2023-01-21T09:12:42.560Z,102975.94
2023-01-21T09:15:09.315Z,102978.06
2023-01-21T09:17:36.035Z,102984.72
2023-01-21T09:20:02.676Z,102987.34
2023-01-21T09:22:29.168Z,102992.41
2023-01-21T09:24:55.660Z,102991.09
2023-01-21T09:27:27.330Z,102990.78
2023-01-21T09:29:54.852Z,103009.97
2023-01-21T09:32:21.405Z,103009.88
2023-01-21T09:34:47.867Z,103013.84
2023-01-21T09:37:19.590Z,103010.78
2023-01-21T09:39:47.799Z,103022.06
2023-01-21T09:42:18.539Z,103027.50
2023-01-21T09:44:47.020Z,103015.06
2023-01-21T09:47:23.468Z,103026.50
2023-01-21T09:49:56.037Z,103028.81
2023-01-21T09:52:39.794Z,103033.81
2023-01-21T09:55:15.157Z,103043.94
2023-01-21T09:57:49.443Z,103037.88
2023-01-21T10:00:28.420Z,103050.50
2023-01-21T10:03:21.009Z,103049.09
2023-01-21T10:05:53.556Z,103046.25
2023-01-21T10:08:29.383Z,103046.03
2023-01-21T10:11:14.939Z,103046.94
2023-01-21T10:14:05.169Z,103046.03
2023-01-21T10:16:42.762Z,103048.25
2023-01-21T10:19:21.157Z,103041.97
2023-01-21T10:21:57.052Z,103044.78
2023-01-21T10:24:35.650Z,103047.41
2023-01-21T10:27:02.207Z,103051.41
2023-01-21T10:29:31.417Z,103053.25
2023-01-21T10:32:07.021Z,103049.19
2023-01-21T10:34:38.127Z,103060.06
2023-01-21T10:37:23.048Z,103046.47
2023-01-21T10:40:03.341Z,103050.69
2023-01-21T10:42:51.594Z,103036.16
2023-01-21T10:45:36.963Z,103038.47
2023-01-21T10:48:37.130Z,103040.53
2023-01-21T10:51:24.983Z,103040.84
2023-01-21T10:54:03.151Z,103036.03
2023-01-21T10:56:40.234Z,103031.69
2023-01-21T10:59:09.786Z,103036.56
2023-01-21T11:01:42.891Z,103033.81
2023-01-21T11:04:18.995Z,103031.53
2023-01-21T11:06:47.015Z,103022.41
2023-01-21T11:09:14.946Z,103031.38
2023-01-21T11:11:43.028Z,103022.47
2023-01-21T11:14:10.537Z,103014.00
2023-01-21T11:16:47.228Z,103011.97
2023-01-21T11:19:16.693Z,103007.13
2023-01-21T11:22:04.750Z,102997.09
2023-01-21T11:24:41.918Z,103005.56
2023-01-21T11:27:22.149Z,103000.59
2023-01-21T11:29:50.302Z,103000.59
2023-01-21T11:32:24.896Z,103002.81
2023-01-21T11:35:09.628Z,103006.13
2023-01-21T11:37:37.889Z,102993.53
2023-01-21T11:40:14.818Z,102997.63
2023-01-21T11:42:49.413Z,102988.28
2023-01-21T11:45:27.706Z,103001.59
2023-01-21T11:47:54.314Z,102998.00
2023-01-21T11:50:26.554Z,102997.53
2023-01-21T11:53:09.148Z,102991.69
2023-01-21T11:55:41.588Z,102985.34
2023-01-21T11:58:28.705Z,102980.91
2023-01-21T12:00:57.632Z,102986.91
2023-01-21T12:03:31.621Z,102973.97
2023-01-21T12:05:58.858Z,102979.81
2023-01-21T12:08:29.332Z,102964.31
2023-01-21T12:10:58.266Z,102978.38
2023-01-21T12:13:28.187Z,102973.28
2023-01-21T12:16:13.696Z,102970.69
2023-01-21T12:18:54.268Z,102976.75
2023-01-21T12:21:50.135Z,102972.44
2023-01-21T12:24:38.512Z,102969.03
2023-01-21T12:27:37.521Z,102973.41
2023-01-21T12:30:15.683Z,102963.84
2023-01-21T12:32:47.114Z,102969.81
2023-01-21T12:35:27.493Z,102976.50
2023-01-21T12:38:15.921Z,102983.75
2023-01-21T12:41:02.623Z,102988.34
2023-01-21T12:43:42.526Z,102981.94
2023-01-21T12:46:28.155Z,102978.56
2023-01-21T12:49:04.705Z,102992.72
2023-01-21T12:51:41.032Z,102989.25
2023-01-21T12:54:19.034Z,102989.66
2023-01-21T12:57:09.990Z,102985.44
2023-01-21T12:59:42.084Z,102988.38
2023-01-21T13:02:28.925Z,102998.50
2023-01-21T13:05:00.817Z,103006.91
2023-01-21T13:08:00.769Z,103008.91
2023-01-21T13:10:37.592Z,102996.84
2023-01-21T13:13:31.235Z,102994.13
2023-01-21T13:16:02.106Z,102999.97
2023-01-21T13:18:35.616Z,103002.59
2023-01-21T13:21:43.631Z,103003.50
2023-01-21T13:24:23.324Z,102994.34
2023-01-21T13:26:57.827Z,102996.31
2023-01-21T13:29:36.414Z,103000.38
2023-01-21T13:32:36.305Z,102993.31
2023-01-21T13:35:16.653Z,103000.69
2023-01-21T13:37:50.513Z,102996.31
2023-01-21T13:40:44.463Z,102993.28
2023-01-21T13:43:54.260Z,102993.75
2023-01-21T13:46:42.446Z,102994.66
2023-01-21T13:49:36.800Z,103006.66
2023-01-21T13:52:27.092Z,103001.41
2023-01-21T13:55:16.556Z,103008.94
2023-01-21T13:58:04.906Z,103017.75
2023-01-21T14:00:35.552Z,103014.19
2023-01-21T14:03:21.096Z,103009.31
2023-01-21T14:05:55.535Z,103019.88
2023-01-21T14:08:27.250Z,103017.69
2023-01-21T14:10:58.933Z,103021.63
2023-01-21T14:14:03.079Z,103029.19
2023-01-21T14:17:06.559Z,103024.00
2023-01-21T14:19:57.922Z,103029.88
2023-01-21T14:22:52.759Z,103040.53
2023-01-21T14:25:29.708Z,103037.22
2023-01-21T14:28:17.088Z,103040.19
2023-01-21T14:30:48.341Z,103046.81
2023-01-21T14:33:24.452Z,103048.19
2023-01-21T14:36:05.653Z,103059.19
2023-01-21T14:39:06.172Z,103059.53
2023-01-21T14:41:54.573Z,103064.78
2023-01-21T14:44:42.185Z,103065.47
2023-01-21T14:47:31.454Z,103078.25
2023-01-21T14:49:59.137Z,103070.41
2023-01-21T14:52:45.136Z,103079.25
2023-01-21T14:55:29.063Z,103081.63
2023-01-21T14:57:56.611Z,103080.84
2023-01-21T15:00:36.590Z,103083.56
2023-01-21T15:03:03.045Z,103098.38
2023-01-21T15:05:33.141Z,103083.81
2023-01-21T15:08:21.096Z,103085.41
2023-01-21T15:11:17.594Z,103091.63
2023-01-21T15:13:44.268Z,103088.59
2023-01-21T15:16:33.534Z,103085.44
2023-01-21T15:19:12.842Z,103084.41
2023-01-21T15:21:42.348Z,103082.38
2023-01-21T15:24:30.590Z,103091.69
2023-01-21T15:27:03.038Z,103087.34
2023-01-21T15:29:37.777Z,103080.28
2023-01-21T15:32:29.131Z,103083.22
2023-01-21T15:35:15.900Z,103085.81
2023-01-21T15:37:45.360Z,103084.25
2023-01-21T15:40:25.580Z,103087.41
2023-01-21T15:43:34.134Z,103070.03
2023-01-21T15:46:13.955Z,103074.56
2023-01-21T15:49:05.523Z,103075.31
2023-01-21T15:52:03.260Z,103073.78
2023-01-21T15:54:48.096Z,103075.31
2023-01-21T15:57:39.509Z,103071.34
2023-01-21T16:00:32.453Z,103082.13
2023-01-21T16:03:25.432Z,103076.97
2023-01-21T16:06:13.552Z,103089.38
2023-01-21T16:08:52.261Z,103086.16
2023-01-21T16:11:21.766Z,103083.00
2023-01-21T16:14:14.821Z,103087.91
2023-01-21T16:17:16.630Z,103103.44
2023-01-21T16:19:45.466Z,103109.78
2023-01-21T16:22:14.924Z,103105.44
2023-01-21T16:24:47.415Z,103111.19
2023-01-21T16:27:18.131Z,103110.59
2023-01-21T16:29:45.049Z,103110.00
2023-01-21T16:32:19.233Z,103104.44
2023-01-21T16:34:46.789Z,103100.97
2023-01-21T16:37:15.620Z,103109.66
2023-01-21T16:39:42.918Z,103114.34
2023-01-21T16:42:31.111Z,103114.38
2023-01-21T16:44:58.123Z,103106.34
2023-01-21T16:47:33.774Z,103107.50
2023-01-21T16:50:01.159Z,103107.41
2023-01-21T16:52:28.387Z,103108.56
2023-01-21T16:54:55.801Z,103104.16
2023-01-21T16:57:32.092Z,103106.41
2023-01-21T17:00:02.188Z,103112.44
2023-01-21T17:02:31.821Z,103102.72
2023-01-21T17:05:00.425Z,103107.94
2023-01-21T17:08:08.621Z,103101.59
2023-01-21T17:10:40.334Z,103113.97
2023-01-21T17:13:12.918Z,103107.22
2023-01-21T17:15:42.531Z,103102.84
2023-01-21T17:18:17.719Z,103116.34
2023-01-21T17:20:47.903Z,103101.47
2023-01-21T17:23:28.035Z,103103.78
2023-01-21T17:25:58.049Z,103099.25
2023-01-21T17:28:59.943Z,103108.97
2023-01-21T17:31:37.243Z,103101.25
2023-01-21T17:34:15.943Z,103089.50
2023-01-21T17:36:48.031Z,103097.78
2023-01-21T17:39:17.108Z,103093.94
2023-01-21T17:41:46.228Z,103099.28
2023-01-21T17:44:19.817Z,103102.72
2023-01-21T17:46:52.009Z,103108.47
2023-01-21T17:49:21.129Z,103104.81
2023-01-21T17:51:48.544Z,103118.84
2023-01-21T17:54:26.546Z,103120.75
2023-01-21T17:56:58.084Z,103109.19
2023-01-21T17:59:34.049Z,103112.09
2023-01-21T18:02:01.849Z,103119.09
2023-01-21T18:04:28.628Z,103114.72
2023-01-21T18:06:55.354Z,103119.84
2023-01-21T18:09:23.281Z,103116.53
2023-01-21T18:11:52.448Z,103111.63
2023-01-21T18:14:24.536Z,103106.38
2023-01-21T18:16:52.873Z,103117.81
2023-01-21T18:19:33.936Z,103116.47
2023-01-21T18:22:02.008Z,103118.75
2023-01-21T18:24:28.723Z,103112.97
2023-01-21T18:26:57.244Z,103109.34
2023-01-21T18:29:27.642Z,103120.34
2023-01-21T18:31:54.096Z,103117.44
2023-01-21T18:34:20.625Z,103120.31
2023-01-21T18:36:47.160Z,103122.94
2023-01-21T18:39:16.322Z,103124.75
2023-01-21T18:41:42.975Z,103120.88
2023-01-21T18:44:10.338Z,103124.63
2023-01-21T18:46:43.859Z,103122.31
2023-01-21T18:49:19.268Z,103136.75
2023-01-21T18:51:46.523Z,103127.97
2023-01-21T18:54:14.084Z,103135.72
2023-01-21T18:56:42.297Z,103127.59
2023-01-21T18:59:13.891Z,103138.13
2023-01-21T19:01:41.327Z,103145.47
2023-01-21T19:04:09.771Z,103143.66
2023-01-21T19:06:36.611Z,103142.50
2023-01-21T19:09:03.898Z,103145.44
2023-01-21T19:11:30.347Z,103149.22
2023-01-21T19:13:56.879Z,103145.34
2023-01-21T19:16:23.366Z,103153.97
2023-01-21T19:18:49.936Z,103154.88
2023-01-21T19:21:16.486Z,103145.84
2023-01-21T19:23:42.992Z,103140.06
2023-01-21T19:26:13.749Z,103135.81
2023-01-21T19:28:40.311Z,103146.78
2023-01-21T19:31:07.001Z,103144.56
2023-01-21T19:33:33.582Z,103138.78
2023-01-21T19:36:03.258Z,103137.63
2023-01-21T19:38:30.207Z,103139.94
2023-01-21T19:40:56.794Z,103131.19
2023-01-21T19:43:23.465Z,103126.59
2023-01-21T19:45:51.478Z,103126.69
2023-01-21T19:48:19.462Z,103144.19
2023-01-21T19:50:46.030Z,103127.94
2023-01-21T19:53:17.966Z,103117.72
2023-01-21T19:55:45.775Z,103136.63
2023-01-21T19:58:19.831Z,103121.50
2023-01-21T20:00:51.702Z,103126.59
2023-01-21T20:03:19.508Z,103118.53
2023-01-21T20:05:48.098Z,103127.22
2023-01-21T20:08:22.741Z,103128.44
2023-01-21T20:10:49.387Z,103125.78
2023-01-21T20:13:16.205Z,103118.31
2023-01-21T20:15:44.081Z,103132.56
2023-01-21T20:18:17.338Z,103121.41
2023-01-21T20:20:43.790Z,103120.28
2023-01-21T20:23:15.056Z,103125.41
2023-01-21T20:25:43.672Z,103133.41
2023-01-21T20:28:27.948Z,103137.13
2023-01-21T20:30:55.075Z,103118.41
2023-01-21T20:33:23.014Z,103125.00
2023-01-21T20:35:51.633Z,103129.28
2023-01-21T20:38:24.211Z,103126.81
2023-01-21T20:40:50.711Z,103128.09
2023-01-21T20:43:20.000Z,103130.13
2023-01-21T20:45:47.870Z,103136.09
2023-01-21T20:48:19.015Z,103124.72
2023-01-21T20:50:46.056Z,103132.50
2023-01-21T20:53:12.634Z,103130.97
2023-01-21T20:55:39.955Z,103126.03
2023-01-21T20:58:06.853Z,103124.63
2023-01-21T21:00:35.612Z,103118.72
2023-01-21T21:03:02.324Z,103126.03
2023-01-21T21:05:29.090Z,103125.81
2023-01-21T21:07:55.963Z,103128.53
2023-01-21T21:10:36.211Z,103123.09
2023-01-21T21:13:03.644Z,103117.44
2023-01-21T21:15:34.796Z,103119.75
2023-01-21T21:18:01.735Z,103122.72
2023-01-21T21:20:30.625Z,103127.06
2023-01-21T21:22:57.109Z,103124.91
2023-01-21T21:25:25.611Z,103135.72
2023-01-21T21:27:53.475Z,103122.66
2023-01-21T21:30:29.770Z,103129.97
2023-01-21T21:32:57.683Z,103129.75
2023-01-21T21:35:30.991Z,103129.13
2023-01-21T21:38:01.018Z,103137.75
2023-01-21T21:40:29.372Z,103132.75
2023-01-21T21:43:15.486Z,103134.13
2023-01-21T21:46:02.727Z,103128.44
2023-01-21T21:48:39.301Z,103135.28
2023-01-21T21:51:06.376Z,103138.13
2023-01-21T21:53:32.914Z,103138.88
2023-01-21T21:56:10.168Z,103136.28
2023-01-21T21:58:36.919Z,103141.38
2023-01-21T22:01:29.517Z,103143.06
2023-01-21T22:04:00.165Z,103140.38
2023-01-21T22:06:26.702Z,103142.47
2023-01-21T22:08:54.620Z,103149.66
2023-01-21T22:11:22.379Z,103139.66
2023-01-21T22:13:50.478Z,103156.81
2023-01-21T22:16:23.737Z,103151.53
2023-01-21T22:18:51.687Z,103149.59
2023-01-21T22:21:21.843Z,103158.06
2023-01-21T22:23:49.444Z,103154.75
2023-01-21T22:26:19.861Z,103178.13
2023-01-21T22:28:46.828Z,103165.94
2023-01-21T22:31:19.144Z,103156.44
2023-01-21T22:33:46.071Z,103152.38
2023-01-21T22:36:20.975Z,103154.59
2023-01-21T22:38:47.952Z,103162.34
2023-01-21T22:41:16.281Z,103165.13
2023-01-21T22:43:44.861Z,103159.25
2023-01-21T22:46:13.675Z,103156.03
2023-01-21T22:48:41.511Z,103153.72
2023-01-21T22:51:10.137Z,103153.97
2023-01-21T22:53:36.659Z,103165.13
2023-01-21T22:56:05.012Z,103164.66
2023-01-21T22:58:32.920Z,103161.66
2023-01-21T23:01:00.219Z,103158.31
2023-01-21T23:03:27.700Z,103154.63
2023-01-21T23:05:54.439Z,103156.56
2023-01-21T23:08:21.550Z,103155.13
2023-01-21T23:10:48.295Z,103143.38
2023-01-21T23:13:16.032Z,103153.00
2023-01-21T23:15:47.049Z,103155.16
2023-01-21T23:18:14.843Z,103143.28
2023-01-21T23:20:43.224Z,103146.22
2023-01-21T23:23:10.440Z,103143.94
2023-01-21T23:25:44.463Z,103146.00
2023-01-21T23:28:11.640Z,103156.34
2023-01-21T23:30:38.898Z,103136.88
2023-01-21T23:33:05.740Z,103135.69
2023-01-21T23:35:34.517Z,103134.53
2023-01-21T23:38:02.136Z,103139.31
2023-01-21T23:40:28.592Z,103143.31
2023-01-21T23:42:55.060Z,103132.47
2023-01-21T23:45:21.522Z,103136.50
2023-01-21T23:47:47.975Z,103136.50
2023-01-21T23:50:14.465Z,103136.28
2023-01-21T23:52:41.499Z,103133.00
2023-01-21T23:55:09.813Z,103128.78
2023-01-21T23:57:37.732Z,103137.63
